createdAt,value
2019-02-20T00:01:29.875Z,11.17
2019-02-20T00:03:56.725Z,11.60
2019-02-20T00:06:23.271Z,11.00
2019-02-20T00:08:49.895Z,10.67
2019-02-20T00:11:16.710Z,11.07
2019-02-20T00:13:43.374Z,10.60
2019-02-20T00:16:09.937Z,10.80
2019-02-20T00:18:36.523Z,10.63
2019-02-20T00:21:03.388Z,10.23
2019-02-20T00:23:30.824Z,10.03
2019-02-20T00:25:57.449Z,9.47
2019-02-20T00:28:23.935Z,8.83
2019-02-20T00:30:50.498Z,9.57
2019-02-20T00:33:16.817Z,7.50
2019-02-20T00:35:43.424Z,7.17
2019-02-20T00:38:09.911Z,8.83
2019-02-20T00:40:36.468Z,7.20
2019-02-20T00:43:03.112Z,6.47
2019-02-20T00:45:34.213Z,7.27
2019-02-20T00:48:11.529Z,7.33
2019-02-20T00:50:42.516Z,7.30
2019-02-20T00:53:17.302Z,6.93
2019-02-20T00:55:43.686Z,9.53
2019-02-20T00:58:10.144Z,7.73
2019-02-20T01:00:37.098Z,8.30
2019-02-20T01:03:03.522Z,9.40
2019-02-20T01:05:30.119Z,8.57
2019-02-20T01:07:56.898Z,7.93
2019-02-20T01:10:23.492Z,8.90
2019-02-20T01:12:49.772Z,9.20
2019-02-20T01:15:16.206Z,11.87
2019-02-20T01:17:42.676Z,9.37
2019-02-20T01:20:09.391Z,8.47
2019-02-20T01:22:35.734Z,9.07
2019-02-20T01:25:02.985Z,8.73
2019-02-20T01:27:29.527Z,9.30
2019-02-20T01:29:55.959Z,9.77
2019-02-20T01:32:24.735Z,8.23
2019-02-20T01:34:51.081Z,8.93
2019-02-20T01:37:17.611Z,10.43
2019-02-20T01:39:44.192Z,9.73
2019-02-20T01:42:11.484Z,8.67
2019-02-20T01:44:39.216Z,8.30
2019-02-20T01:47:19.831Z,8.13
2019-02-20T01:50:11.525Z,7.70
2019-02-20T01:52:26.325Z,7.73
2019-02-20T01:54:54.537Z,8.13
2019-02-20T01:57:21.174Z,7.40
2019-02-20T01:59:47.718Z,8.03
2019-02-20T02:02:14.407Z,6.73
2019-02-20T02:04:40.997Z,7.63
2019-02-20T02:07:07.737Z,7.23
2019-02-20T02:09:34.256Z,6.33
2019-02-20T02:12:00.926Z,6.60
2019-02-20T02:14:27.390Z,8.30
2019-02-20T02:16:54.135Z,6.13
2019-02-20T02:19:20.941Z,6.20
2019-02-20T02:21:47.446Z,5.53
2019-02-20T02:24:13.850Z,6.30
2019-02-20T02:26:40.621Z,5.83
2019-02-20T02:29:07.155Z,6.40
2019-02-20T02:31:33.464Z,6.87
2019-02-20T02:34:01.184Z,6.17
2019-02-20T02:36:27.648Z,5.77
2019-02-20T02:38:54.116Z,6.30
2019-02-20T02:41:26.952Z,6.73
2019-02-20T02:43:55.077Z,8.30
2019-02-20T02:46:21.514Z,6.73
2019-02-20T02:48:47.933Z,6.50
2019-02-20T02:51:14.415Z,7.67
2019-02-20T02:53:40.789Z,6.90
2019-02-20T02:56:07.288Z,5.60
2019-02-20T02:58:33.709Z,6.60
2019-02-20T03:01:00.326Z,5.63
2019-02-20T03:03:26.959Z,6.20
2019-02-20T03:05:53.501Z,7.63
2019-02-20T03:08:20.119Z,6.63
2019-02-20T03:10:46.677Z,6.77
2019-02-20T03:13:13.213Z,6.80
2019-02-20T03:15:39.627Z,6.33
2019-02-20T03:18:06.104Z,6.80
2019-02-20T03:20:32.419Z,7.13
2019-02-20T03:22:58.946Z,6.50
2019-02-20T03:25:25.270Z,6.73
2019-02-20T03:27:51.711Z,7.90
2019-02-20T03:30:18.247Z,7.50
2019-02-20T03:32:44.680Z,9.47
2019-02-20T03:35:11.338Z,8.27
2019-02-20T03:37:38.054Z,9.87
2019-02-20T03:40:05.722Z,9.60
2019-02-20T03:42:32.157Z,9.80
2019-02-20T03:44:58.489Z,10.20
2019-02-20T03:47:25.139Z,10.40
2019-02-20T03:49:51.860Z,9.70
2019-02-20T03:52:18.588Z,10.00
2019-02-20T03:54:45.224Z,10.87
2019-02-20T03:57:11.868Z,10.27
2019-02-20T03:59:38.892Z,9.80
2019-02-20T04:02:06.066Z,10.17
2019-02-20T04:04:32.589Z,10.20
2019-02-20T04:06:59.124Z,10.03
2019-02-20T04:09:25.807Z,10.50
2019-02-20T04:11:52.440Z,11.53
2019-02-20T04:14:19.462Z,11.63
2019-02-20T04:16:45.874Z,9.23
2019-02-20T04:19:12.290Z,12.10
2019-02-20T04:21:38.768Z,11.23
2019-02-20T04:24:05.597Z,11.97
2019-02-20T04:26:32.247Z,12.97
2019-02-20T04:28:58.674Z,11.63
2019-02-20T04:31:25.315Z,11.57
2019-02-20T04:33:52.615Z,12.57
2019-02-20T04:36:19.509Z,12.27
2019-02-20T04:38:46.279Z,12.57
2019-02-20T04:41:12.714Z,12.33
2019-02-20T04:43:40.236Z,11.63
2019-02-20T04:46:06.884Z,14.03
2019-02-20T04:48:34.268Z,13.67
2019-02-20T04:51:00.766Z,13.03
2019-02-20T04:53:27.403Z,12.70
2019-02-20T04:55:54.631Z,12.53
2019-02-20T04:58:21.985Z,13.23
2019-02-20T05:00:48.653Z,13.60
2019-02-20T05:03:15.275Z,14.43
2019-02-20T05:05:42.136Z,13.20
2019-02-20T05:08:08.666Z,13.43
2019-02-20T05:10:35.051Z,14.37
2019-02-20T05:13:01.602Z,14.23
2019-02-20T05:15:28.391Z,16.53
2019-02-20T05:17:54.916Z,16.00
2019-02-20T05:23:45.330Z,14.47
2019-02-20T05:26:12.055Z,15.60
2019-02-20T05:28:38.938Z,13.90
2019-02-20T05:31:05.481Z,15.00
2019-02-20T05:33:31.956Z,14.50
2019-02-20T05:35:58.517Z,13.97
2019-02-20T05:38:24.862Z,14.20
2019-02-20T05:40:52.079Z,15.40
2019-02-20T05:43:18.651Z,15.87
2019-02-20T05:45:45.149Z,15.60
2019-02-20T05:48:11.712Z,14.17
2019-02-20T05:50:38.646Z,13.13
2019-02-20T05:53:06.449Z,14.00
2019-02-20T05:55:34.082Z,13.87
2019-02-20T05:58:00.808Z,15.13
2019-02-20T06:00:27.303Z,16.20
2019-02-20T06:02:53.884Z,13.83
2019-02-20T06:05:20.441Z,13.47
2019-02-20T06:07:52.071Z,13.80
2019-02-20T06:10:18.705Z,14.13
2019-02-20T06:12:45.001Z,13.97
2019-02-20T06:15:11.726Z,14.43
2019-02-20T06:17:38.571Z,14.00
2019-02-20T06:20:08.070Z,14.97
2019-02-20T06:22:43.343Z,17.90
2019-02-20T06:25:10.161Z,14.37
2019-02-20T06:27:36.799Z,15.23
2019-02-20T06:30:07.310Z,16.47
2019-02-20T06:32:34.464Z,15.83
2019-02-20T06:35:01.213Z,15.03
2019-02-20T06:37:28.139Z,15.80
2019-02-20T06:39:54.881Z,14.90
2019-02-20T06:42:24.189Z,14.50
2019-02-20T06:44:50.656Z,15.73
2019-02-20T06:47:17.357Z,14.43
2019-02-20T06:49:43.802Z,15.90
2019-02-20T06:52:10.577Z,17.17
2019-02-20T06:58:01.428Z,16.23
2019-02-20T07:00:27.995Z,17.40
2019-02-20T07:02:54.806Z,16.30
2019-02-20T07:05:57.339Z,15.70
2019-02-20T07:12:31.482Z,15.90
2019-02-20T07:15:10.766Z,16.27
2019-02-20T07:17:46.985Z,16.80
2019-02-20T07:20:37.136Z,19.40
2019-02-20T07:23:13.323Z,14.50
2019-02-20T07:25:53.203Z,14.83
2019-02-20T07:31:44.459Z,29.47
2019-02-20T07:34:11.568Z,29.23
2019-02-20T07:36:38.075Z,36.70
2019-02-20T07:39:05.033Z,19.30
2019-02-20T07:41:32.597Z,36.80
2019-02-20T07:43:59.399Z,16.30
2019-02-20T07:46:26.207Z,15.77
2019-02-20T07:48:52.668Z,16.63
2019-02-20T07:51:19.362Z,16.67
2019-02-20T07:53:45.948Z,16.70
2019-02-20T07:56:12.811Z,16.20
2019-02-20T07:58:39.837Z,16.70
2019-02-20T08:01:06.777Z,17.30
2019-02-20T08:03:33.788Z,15.50
2019-02-20T08:06:00.693Z,16.37
2019-02-20T08:08:27.759Z,15.40
2019-02-20T08:10:54.802Z,16.20
2019-02-20T08:13:21.903Z,16.60
2019-02-20T08:15:48.677Z,18.67
2019-02-20T08:18:15.616Z,17.03
2019-02-20T08:20:42.679Z,16.80
2019-02-20T08:23:09.225Z,16.33
2019-02-20T08:25:35.946Z,16.47
2019-02-20T08:28:22.055Z,16.47
2019-02-20T08:30:53.067Z,17.43
2019-02-20T08:33:20.094Z,18.50
2019-02-20T08:35:47.011Z,15.53
2019-02-20T08:38:13.935Z,16.83
2019-02-20T08:40:41.125Z,16.30
2019-02-20T08:43:11.698Z,17.20
2019-02-20T08:45:39.061Z,17.67
2019-02-20T08:48:06.021Z,17.90
2019-02-20T08:50:32.980Z,17.23
2019-02-20T08:53:02.673Z,18.60
2019-02-20T08:55:32.415Z,19.17
2019-02-20T08:57:59.009Z,18.60
2019-02-20T09:00:26.048Z,17.43
2019-02-20T09:02:52.695Z,16.13
2019-02-20T09:05:19.623Z,18.60
2019-02-20T09:07:46.316Z,17.33
2019-02-20T09:10:13.351Z,18.57
2019-02-20T09:12:39.946Z,19.07
2019-02-20T09:15:12.400Z,17.13
2019-02-20T09:17:39.275Z,18.90
2019-02-20T09:20:09.349Z,18.43
2019-02-20T09:22:36.244Z,18.10
2019-02-20T09:25:06.463Z,20.43
2019-02-20T09:27:33.527Z,20.50
2019-02-20T09:30:00.338Z,22.03
2019-02-20T09:32:27.129Z,20.27
2019-02-20T09:34:53.763Z,18.30
2019-02-20T09:37:20.580Z,16.53
2019-02-20T09:39:47.242Z,18.63
2019-02-20T09:42:14.026Z,18.00
2019-02-20T09:44:43.173Z,21.00
2019-02-20T09:47:10.010Z,19.93
2019-02-20T09:49:37.009Z,19.73
2019-02-20T09:52:04.025Z,19.20
2019-02-20T09:54:30.863Z,19.03
2019-02-20T09:56:58.201Z,19.10
2019-02-20T09:59:25.146Z,17.80
2019-02-20T10:01:51.809Z,19.13
2019-02-20T10:04:18.623Z,18.90
2019-02-20T10:06:45.703Z,18.10
2019-02-20T10:09:13.083Z,17.70
2019-02-20T10:11:39.933Z,20.60
2019-02-20T10:14:07.072Z,20.27
2019-02-20T10:16:33.959Z,19.17
2019-02-20T10:19:01.023Z,19.30
2019-02-20T10:21:27.985Z,20.90
2019-02-20T10:23:54.918Z,19.70
2019-02-20T10:26:21.863Z,18.43
2019-02-20T10:28:48.794Z,19.73
2019-02-20T10:31:16.642Z,19.80
2019-02-20T10:33:43.411Z,21.30
2019-02-20T10:36:10.878Z,21.43
2019-02-20T10:38:37.692Z,20.00
2019-02-20T10:41:04.666Z,19.83
2019-02-20T10:43:31.708Z,20.57
2019-02-20T10:45:58.697Z,21.43
2019-02-20T10:48:25.727Z,22.80
2019-02-20T10:50:52.725Z,21.33
2019-02-20T10:53:19.760Z,20.70
2019-02-20T10:55:46.789Z,19.40
2019-02-20T10:58:13.970Z,19.40
2019-02-20T11:00:40.839Z,19.27
2019-02-20T11:03:07.568Z,18.40
2019-02-20T11:05:46.862Z,19.07
2019-02-20T11:08:14.059Z,17.07
2019-02-20T11:10:41.577Z,18.30
2019-02-20T11:13:08.977Z,17.20
2019-02-20T11:15:35.970Z,17.80
2019-02-20T11:18:02.755Z,18.13
2019-02-20T11:20:29.743Z,16.67
2019-02-20T11:22:56.581Z,18.20
2019-02-20T11:25:24.029Z,16.20
2019-02-20T11:27:51.420Z,16.87
2019-02-20T11:30:23.751Z,16.40
2019-02-20T11:32:50.562Z,16.43
2019-02-20T11:35:17.674Z,17.03
2019-02-20T11:37:44.991Z,18.60
2019-02-20T11:40:13.499Z,16.37
2019-02-20T11:42:44.552Z,16.87
2019-02-20T11:45:16.793Z,15.80
2019-02-20T11:47:43.744Z,18.13
2019-02-20T11:50:11.604Z,15.57
2019-02-20T11:52:39.169Z,14.83
2019-02-20T11:55:08.089Z,15.60
2019-02-20T11:57:35.271Z,16.23
2019-02-20T12:00:01.976Z,17.43
2019-02-20T12:02:37.209Z,18.03
2019-02-20T12:04:57.749Z,16.50
2019-02-20T12:07:24.819Z,18.37
2019-02-20T12:09:51.767Z,16.50
2019-02-20T12:12:18.844Z,16.17
2019-02-20T12:14:45.834Z,15.97
2019-02-20T12:17:12.778Z,18.20
2019-02-20T12:19:39.555Z,17.17
2019-02-20T12:22:06.591Z,18.70
2019-02-20T12:24:33.655Z,17.60
2019-02-20T12:27:00.908Z,16.67
2019-02-20T12:29:28.039Z,18.40
2019-02-20T12:31:54.938Z,17.47
2019-02-20T12:34:22.079Z,19.67
2019-02-20T12:36:49.205Z,19.57
2019-02-20T12:39:16.943Z,17.47
2019-02-20T12:41:43.920Z,19.40
2019-02-20T12:44:10.643Z,19.20
2019-02-20T12:46:37.915Z,19.87
2019-02-20T12:49:05.269Z,20.93
2019-02-20T12:51:32.205Z,21.37
2019-02-20T12:53:59.380Z,19.20
2019-02-20T12:56:26.431Z,20.70
2019-02-20T12:58:53.532Z,20.03
2019-02-20T13:01:20.533Z,21.40
2019-02-20T13:03:47.457Z,21.50
2019-02-20T13:06:14.324Z,21.00
2019-02-20T13:08:53.830Z,23.93
2019-02-20T13:11:19.002Z,22.67
2019-02-20T13:13:45.593Z,21.57
2019-02-20T13:16:12.533Z,21.10
2019-02-20T13:18:40.286Z,18.57
2019-02-20T13:21:08.065Z,21.00
2019-02-20T13:23:34.746Z,20.83
2019-02-20T13:26:01.844Z,20.30
2019-02-20T13:28:28.800Z,21.67
2019-02-20T13:30:57.044Z,20.40
2019-02-20T13:33:23.618Z,21.20
2019-02-20T13:35:50.514Z,20.13
2019-02-20T13:38:17.589Z,21.77
2019-02-20T13:40:44.759Z,22.90
2019-02-20T13:43:12.704Z,20.77
2019-02-20T13:45:39.675Z,21.30
2019-02-20T13:48:06.767Z,21.17
2019-02-20T13:50:33.871Z,22.30
2019-02-20T13:53:01.223Z,21.67
2019-02-20T13:55:34.291Z,22.57
2019-02-20T13:57:57.616Z,23.97
2019-02-20T14:00:24.934Z,22.73
2019-02-20T14:02:51.859Z,24.37
2019-02-20T14:05:19.422Z,23.33
2019-02-20T14:07:46.257Z,23.67
2019-02-20T14:10:13.324Z,23.43
2019-02-20T14:12:40.180Z,23.50
2019-02-20T14:15:09.882Z,23.80
2019-02-20T14:17:36.783Z,22.07
2019-02-20T14:20:06.887Z,22.60
2019-02-20T14:22:33.640Z,22.97
2019-02-20T14:25:02.726Z,24.60
2019-02-20T14:27:29.778Z,22.83
2019-02-20T14:29:56.854Z,24.70
2019-02-20T14:32:24.146Z,23.80
2019-02-20T14:34:51.690Z,22.97
2019-02-20T14:37:19.207Z,23.77
2019-02-20T14:39:47.787Z,22.83
2019-02-20T14:42:15.357Z,22.90
2019-02-20T14:44:42.651Z,22.37
2019-02-20T14:47:09.631Z,24.00
2019-02-20T14:49:36.971Z,21.50
2019-02-20T14:52:03.845Z,21.83
2019-02-20T14:54:30.743Z,22.53
2019-02-20T14:56:57.786Z,22.03
2019-02-20T14:59:24.355Z,23.33
2019-02-20T15:01:51.796Z,23.00
2019-02-20T15:04:18.384Z,23.03
2019-02-20T15:06:45.602Z,20.63
2019-02-20T15:09:13.290Z,24.20
2019-02-20T15:11:39.839Z,21.70
2019-02-20T15:14:07.145Z,22.90
2019-02-20T15:16:34.680Z,20.60
2019-02-20T15:19:01.684Z,21.67
2019-02-20T15:21:28.916Z,22.47
2019-02-20T15:23:55.347Z,24.93
2019-02-20T15:26:22.099Z,23.23
2019-02-20T15:28:48.974Z,21.97
2019-02-20T15:31:15.498Z,21.40
2019-02-20T15:33:41.899Z,23.37
2019-02-20T15:36:08.955Z,21.17
2019-02-20T15:38:36.233Z,20.67
2019-02-20T15:41:05.215Z,21.53
2019-02-20T15:43:32.445Z,20.23
2019-02-20T15:45:59.559Z,23.43
2019-02-20T15:48:26.829Z,22.43
2019-02-20T15:50:53.610Z,20.30
2019-02-20T15:53:20.690Z,18.80
2019-02-20T15:55:47.635Z,21.70
2019-02-20T15:58:15.089Z,21.47
2019-02-20T16:00:47.647Z,21.73
2019-02-20T16:03:14.491Z,20.20
2019-02-20T16:05:41.347Z,20.90
2019-02-20T16:08:08.599Z,21.50
2019-02-20T16:10:35.419Z,22.33
2019-02-20T16:13:02.150Z,20.97
2019-02-20T16:15:29.152Z,21.30
2019-02-20T16:17:56.295Z,23.53
2019-02-20T16:20:23.036Z,21.33
2019-02-20T16:22:49.557Z,22.60
2019-02-20T16:25:16.674Z,22.97
2019-02-20T16:27:47.020Z,21.03
2019-02-20T16:33:35.785Z,21.20
2019-02-20T16:36:02.527Z,22.10
2019-02-20T16:38:28.930Z,22.43
2019-02-20T16:40:56.547Z,21.53
2019-02-20T16:43:26.673Z,21.73
2019-02-20T16:45:53.687Z,23.10
2019-02-20T16:48:20.423Z,22.30
2019-02-20T16:50:47.057Z,22.53
2019-02-20T16:53:13.832Z,21.90
2019-02-20T16:55:40.470Z,20.73
2019-02-20T16:58:07.784Z,22.57
2019-02-20T17:00:34.962Z,22.63
2019-02-20T17:03:01.367Z,22.30
2019-02-20T17:05:27.904Z,21.63
2019-02-20T17:08:00.423Z,24.27
2019-02-20T17:10:26.959Z,21.80
2019-02-20T17:12:54.747Z,23.07
2019-02-20T17:15:24.426Z,21.30
2019-02-20T17:17:53.211Z,23.00
2019-02-20T17:20:20.346Z,22.50
2019-02-20T17:22:47.196Z,24.03
2019-02-20T17:31:38.234Z,35.30
2019-02-20T17:34:04.989Z,106.03
2019-02-20T17:36:31.676Z,27.43
2019-02-20T17:38:58.378Z,24.93
2019-02-20T17:41:25.482Z,29.03
2019-02-20T17:43:52.570Z,24.43
2019-02-20T17:46:19.319Z,22.17
2019-02-20T17:48:46.727Z,23.13
2019-02-20T17:51:13.946Z,21.83
2019-02-20T17:53:40.735Z,27.40
2019-02-20T17:56:07.786Z,22.10
2019-02-20T17:58:35.560Z,23.27
2019-02-20T18:01:03.977Z,23.00
2019-02-20T18:03:30.396Z,23.03
2019-02-20T18:05:57.467Z,23.20
2019-02-20T18:08:24.052Z,23.37
2019-02-20T18:10:51.221Z,23.37
2019-02-20T18:13:19.826Z,22.43
2019-02-20T18:15:46.652Z,23.83
2019-02-20T18:18:13.424Z,24.27
2019-02-20T18:20:40.626Z,24.00
2019-02-20T18:23:07.855Z,23.33
2019-02-20T18:25:34.471Z,25.00
2019-02-20T18:31:24.960Z,22.53
2019-02-20T18:33:51.350Z,23.17
2019-02-20T18:36:17.868Z,23.80
2019-02-20T18:38:44.337Z,23.57
2019-02-20T18:41:10.861Z,23.50
2019-02-20T18:43:37.550Z,24.87
2019-02-20T18:46:04.134Z,26.13
2019-02-20T18:48:30.780Z,25.63
2019-02-20T18:50:57.202Z,24.07
2019-02-20T18:53:23.663Z,27.83
2019-02-20T18:55:50.814Z,26.83
2019-02-20T18:58:19.078Z,26.13
2019-02-20T19:00:46.030Z,26.70
2019-02-20T19:03:12.960Z,25.17
2019-02-20T19:05:39.631Z,26.13
2019-02-20T19:08:30.155Z,28.87
2019-02-20T19:11:00.433Z,29.27
2019-02-20T19:13:46.105Z,29.23
2019-02-20T19:16:31.745Z,28.87
2019-02-20T19:19:02.965Z,31.77
2019-02-20T19:21:48.527Z,31.53
2019-02-20T19:24:34.150Z,30.10
2019-02-20T19:27:14.184Z,31.80
2019-02-20T19:33:10.280Z,33.03
2019-02-20T19:36:02.017Z,33.00
2019-02-20T19:38:50.316Z,34.77
2019-02-20T19:41:55.407Z,37.23
2019-02-20T19:44:31.913Z,36.77
2019-02-20T19:47:14.139Z,38.13
2019-02-20T19:50:06.481Z,39.07
2019-02-20T19:52:55.104Z,39.33
2019-02-20T19:55:28.311Z,39.27
2019-02-20T19:57:58.537Z,37.97
2019-02-20T20:00:40.606Z,41.30
2019-02-20T20:03:10.947Z,42.87
2019-02-20T20:05:49.578Z,40.20
2019-02-20T20:08:31.435Z,38.03
2019-02-20T20:11:25.945Z,43.63
2019-02-20T20:14:18.995Z,42.57
2019-02-20T20:17:14.307Z,45.10
2019-02-20T20:19:50.700Z,42.80
2019-02-20T20:22:27.237Z,44.60
2019-02-20T20:25:15.912Z,44.87
2019-02-20T20:28:16.579Z,42.17
2019-02-20T20:31:11.134Z,43.23
2019-02-20T20:34:08.906Z,43.00
2019-02-20T20:36:41.858Z,47.00
2019-02-20T20:39:32.374Z,46.37
2019-02-20T20:42:30.180Z,45.77
2019-02-20T20:45:18.396Z,45.87
2019-02-20T20:48:12.831Z,43.67
2019-02-20T20:50:54.652Z,46.97
2019-02-20T20:53:30.549Z,46.30
2019-02-20T20:56:06.399Z,49.07
2019-02-20T20:58:39.611Z,47.80
2019-02-20T21:01:36.550Z,46.37
2019-02-20T21:04:19.030Z,46.90
2019-02-20T21:07:05.751Z,43.90
2019-02-20T21:09:39.299Z,45.20
2019-02-20T21:12:37.875Z,45.43
2019-02-20T21:15:41.992Z,43.70
2019-02-20T21:18:30.177Z,43.87
2019-02-20T21:21:30.427Z,44.03
2019-02-20T21:24:03.656Z,43.77
2019-02-20T21:26:39.617Z,44.57
2019-02-20T21:29:31.152Z,42.53
2019-02-20T21:32:16.467Z,42.87
2019-02-20T21:35:05.209Z,43.70
2019-02-20T21:41:09.783Z,44.10
2019-02-20T21:43:43.483Z,41.00
2019-02-20T21:46:40.001Z,40.53
2019-02-20T21:49:16.470Z,41.63
2019-02-20T21:52:06.208Z,41.03
2019-02-20T21:55:00.856Z,40.73
2019-02-20T21:57:53.914Z,40.67
2019-02-20T22:00:28.031Z,39.57
2019-02-20T22:03:19.687Z,39.50
2019-02-20T22:05:52.603Z,39.20
2019-02-20T22:08:45.899Z,38.40
2019-02-20T22:11:24.197Z,38.80
2019-02-20T22:14:11.833Z,36.13
2019-02-20T22:16:57.512Z,35.90
2019-02-20T22:19:45.386Z,34.57
2019-02-20T22:22:21.258Z,33.00
2019-02-20T22:25:03.784Z,31.70
2019-02-20T22:27:48.918Z,31.10
2019-02-20T22:30:25.762Z,33.00
2019-02-20T22:33:11.203Z,32.43
2019-02-20T22:35:47.002Z,30.80
2019-02-20T22:38:32.399Z,30.30
2019-02-20T22:41:07.238Z,28.77
2019-02-20T22:43:40.739Z,30.27
2019-02-20T22:46:19.858Z,28.40
2019-02-20T22:48:50.176Z,25.20
2019-02-20T22:51:20.389Z,25.50
2019-02-20T22:54:03.024Z,26.27
2019-02-20T22:56:39.054Z,26.40
2019-02-20T22:59:27.748Z,24.83
2019-02-20T23:02:13.312Z,24.00
2019-02-20T23:04:46.636Z,24.43
2019-02-20T23:07:16.870Z,24.23
2019-02-20T23:09:59.277Z,21.87
2019-02-20T23:12:50.535Z,22.80
2019-02-20T23:15:17.011Z,21.30
2019-02-20T23:17:43.335Z,21.73
2019-02-20T23:20:09.862Z,20.73
2019-02-20T23:22:36.486Z,19.80
2019-02-20T23:25:04.560Z,20.73
2019-02-20T23:27:30.908Z,18.10
2019-02-20T23:29:57.169Z,21.63
2019-02-20T23:32:23.797Z,18.47
2019-02-20T23:34:50.325Z,21.00
2019-02-20T23:37:16.850Z,19.93
2019-02-20T23:39:43.346Z,19.30
2019-02-20T23:42:09.907Z,18.07
2019-02-20T23:44:36.481Z,18.23
2019-02-20T23:47:03.288Z,17.70
2019-02-20T23:49:29.839Z,17.87
2019-02-20T23:51:56.350Z,19.00
2019-02-20T23:54:23.605Z,18.17
2019-02-20T23:56:50.056Z,19.07
2019-02-20T23:59:16.382Z,18.23
